createdAt,value
2019-05-20T00:02:03.772Z,51.20
2019-05-20T00:04:32.423Z,51.20
2019-05-20T00:07:01.091Z,51.30
2019-05-20T00:09:29.811Z,51.20
2019-05-20T00:11:58.466Z,51.20
2019-05-20T00:14:27.121Z,51.20
2019-05-20T00:16:55.777Z,51.20
2019-05-20T00:19:24.417Z,51.20
2019-05-20T00:21:53.320Z,51.30
2019-05-20T00:24:21.960Z,51.30
2019-05-20T00:26:50.614Z,51.20
2019-05-20T00:29:19.304Z,51.20
2019-05-20T00:31:47.965Z,51.30
2019-05-20T00:34:16.643Z,51.30
2019-05-20T00:36:45.319Z,51.30
2019-05-20T00:39:19.339Z,51.90
2019-05-20T00:41:47.998Z,51.30
2019-05-20T00:44:16.958Z,51.30
2019-05-20T00:46:45.616Z,51.30
2019-05-20T00:49:14.284Z,51.30
2019-05-20T00:51:43.668Z,51.30
2019-05-20T00:54:12.525Z,51.20
2019-05-20T00:56:41.181Z,51.20
2019-05-20T00:59:09.835Z,51.30
2019-05-20T01:01:38.523Z,51.30
2019-05-20T01:04:07.160Z,51.30
2019-05-20T01:06:36.532Z,51.30
2019-05-20T01:09:07.304Z,51.30
2019-05-20T01:11:35.967Z,51.30
2019-05-20T01:14:05.283Z,51.30
2019-05-20T01:16:33.960Z,51.30
2019-05-20T01:19:02.852Z,51.40
2019-05-20T01:21:31.539Z,51.30
2019-05-20T01:24:00.325Z,51.30
2019-05-20T01:26:29.065Z,51.40
2019-05-20T01:28:57.721Z,51.40
2019-05-20T01:31:26.380Z,51.40
2019-05-20T01:33:55.747Z,51.40
2019-05-20T01:36:24.435Z,51.40
2019-05-20T01:38:53.087Z,51.40
2019-05-20T01:41:21.755Z,51.40
2019-05-20T01:43:50.388Z,51.40
2019-05-20T01:46:19.057Z,51.40
2019-05-20T01:48:47.715Z,51.40
2019-05-20T01:51:16.392Z,51.40
2019-05-20T01:53:45.060Z,51.50
2019-05-20T01:56:13.734Z,51.40
2019-05-20T01:58:42.383Z,51.50
2019-05-20T02:01:11.043Z,51.40
2019-05-20T02:03:39.708Z,51.50
2019-05-20T02:06:27.692Z,51.50
2019-05-20T02:08:56.388Z,51.50
2019-05-20T02:11:25.076Z,51.50
2019-05-20T02:14:04.769Z,51.50
2019-05-20T02:16:33.427Z,52.20
2019-05-20T02:19:02.076Z,51.50
2019-05-20T02:21:30.751Z,51.50
2019-05-20T02:23:59.418Z,51.50
2019-05-20T02:26:28.141Z,51.50
2019-05-20T02:28:56.823Z,51.60
2019-05-20T02:31:25.479Z,51.60
2019-05-20T02:33:54.164Z,51.70
2019-05-20T02:36:22.796Z,51.60
2019-05-20T02:38:51.458Z,51.60
2019-05-20T02:41:20.128Z,51.50
2019-05-20T02:43:48.791Z,51.60
2019-05-20T02:46:17.434Z,51.60
2019-05-20T02:48:46.112Z,51.60
2019-05-20T02:51:16.393Z,51.60
2019-05-20T02:53:45.033Z,51.60
2019-05-20T02:56:13.675Z,51.60
2019-05-20T02:58:42.326Z,51.60
2019-05-20T03:01:10.989Z,51.60
2019-05-20T03:03:39.680Z,51.60
2019-05-20T03:06:08.314Z,51.60
2019-05-20T03:08:36.982Z,51.70
2019-05-20T03:11:05.699Z,51.70
2019-05-20T03:13:34.367Z,51.70
2019-05-20T03:16:03.171Z,51.70
2019-05-20T03:18:31.813Z,51.70
2019-05-20T03:21:00.484Z,51.70
2019-05-20T03:23:29.131Z,51.70
2019-05-20T03:25:57.783Z,51.70
2019-05-20T03:28:26.509Z,51.70
2019-05-20T03:30:55.234Z,51.70
2019-05-20T03:33:24.613Z,51.70
2019-05-20T03:35:53.275Z,51.70
2019-05-20T03:38:21.928Z,51.70
2019-05-20T03:40:50.671Z,51.80
2019-05-20T03:43:19.353Z,51.80
2019-05-20T03:45:47.997Z,51.80
2019-05-20T03:48:16.671Z,51.80
2019-05-20T03:50:45.318Z,51.80
2019-05-20T03:53:13.958Z,51.80
2019-05-20T03:55:43.173Z,51.90
2019-05-20T03:58:13.546Z,51.80
2019-05-20T04:00:44.327Z,51.80
2019-05-20T04:03:13.152Z,51.90
2019-05-20T04:05:41.787Z,51.90
2019-05-20T04:08:10.441Z,51.80
2019-05-20T04:10:39.110Z,51.90
2019-05-20T04:13:07.775Z,51.90
2019-05-20T04:15:36.452Z,51.90
2019-05-20T04:18:05.350Z,51.90
2019-05-20T04:20:34.006Z,51.90
2019-05-20T04:23:02.657Z,51.90
2019-05-20T04:25:31.728Z,51.90
2019-05-20T04:28:00.360Z,51.90
2019-05-20T04:30:29.026Z,51.90
2019-05-20T04:32:57.685Z,51.90
2019-05-20T04:35:26.390Z,51.90
2019-05-20T04:37:55.053Z,51.90
2019-05-20T04:40:23.798Z,51.90
2019-05-20T04:42:53.243Z,51.90
2019-05-20T04:45:21.892Z,52.00
2019-05-20T04:47:50.567Z,52.00
2019-05-20T04:50:19.220Z,51.90
2019-05-20T04:52:47.881Z,52.00
2019-05-20T04:55:16.525Z,52.00
2019-05-20T04:57:45.211Z,52.00
2019-05-20T05:00:13.885Z,52.00
2019-05-20T05:02:43.640Z,52.00
2019-05-20T05:05:12.897Z,52.00
2019-05-20T05:07:41.575Z,52.00
2019-05-20T05:10:10.274Z,52.00
2019-05-20T05:12:38.913Z,52.00
2019-05-20T05:15:08.214Z,52.10
2019-05-20T05:17:36.929Z,52.10
2019-05-20T05:20:05.830Z,52.10
2019-05-20T05:22:34.550Z,52.10
2019-05-20T05:25:03.227Z,52.10
2019-05-20T05:27:31.883Z,52.10
2019-05-20T05:30:00.541Z,52.10
2019-05-20T05:32:42.062Z,52.10
2019-05-20T05:35:12.524Z,52.10
2019-05-20T05:37:41.206Z,52.10
2019-05-20T05:40:09.884Z,52.10
2019-05-20T05:42:38.533Z,52.30
2019-05-20T05:45:07.301Z,52.40
2019-05-20T05:47:35.975Z,52.50
2019-05-20T05:50:05.512Z,52.60
2019-05-20T05:52:34.195Z,52.60
2019-05-20T05:55:02.875Z,52.60
2019-05-20T05:57:31.541Z,52.70
2019-05-20T06:00:00.195Z,52.60
2019-05-20T06:02:28.860Z,52.60
2019-05-20T06:04:57.516Z,52.60
2019-05-20T06:07:26.187Z,52.60
2019-05-20T06:09:54.841Z,52.50
2019-05-20T06:12:23.522Z,52.50
2019-05-20T06:14:52.219Z,52.50
2019-05-20T06:17:21.611Z,52.60
2019-05-20T06:19:50.256Z,52.70
2019-05-20T06:22:18.989Z,52.70
2019-05-20T06:24:47.611Z,52.70
2019-05-20T06:27:16.279Z,52.60
2019-05-20T06:29:44.924Z,52.60
2019-05-20T06:32:13.580Z,52.50
2019-05-20T06:34:43.171Z,52.60
2019-05-20T06:37:14.382Z,52.60
2019-05-20T06:39:43.020Z,52.50
2019-05-20T06:42:11.683Z,52.60
2019-05-20T06:44:52.123Z,52.60
2019-05-20T06:47:10.755Z,52.50
2019-05-20T06:49:39.403Z,52.50
2019-05-20T06:52:08.058Z,52.40
2019-05-20T06:54:36.743Z,52.60
2019-05-20T06:57:05.460Z,52.70
2019-05-20T06:59:34.087Z,52.80
2019-05-20T07:02:02.781Z,52.90
2019-05-20T07:04:31.498Z,52.70
2019-05-20T07:07:00.147Z,52.70
2019-05-20T07:09:28.824Z,52.70
2019-05-20T07:11:57.554Z,52.60
2019-05-20T07:14:26.225Z,52.70
2019-05-20T07:16:54.856Z,52.70
2019-05-20T07:19:23.520Z,52.60
2019-05-20T07:21:52.185Z,52.60
2019-05-20T07:24:20.844Z,52.60
2019-05-20T07:26:49.512Z,52.60
2019-05-20T07:29:18.156Z,52.60
2019-05-20T07:31:46.857Z,52.60
2019-05-20T07:34:15.529Z,52.50
2019-05-20T07:36:44.181Z,52.50
2019-05-20T07:39:12.857Z,52.50
2019-05-20T07:41:42.003Z,52.50
2019-05-20T07:44:11.424Z,52.50
2019-05-20T07:46:40.064Z,52.40
2019-05-20T07:49:08.752Z,52.50
2019-05-20T07:51:37.485Z,52.40
2019-05-20T07:54:06.985Z,52.40
2019-05-20T07:56:39.269Z,52.40
2019-05-20T07:59:07.940Z,52.40
2019-05-20T08:01:36.597Z,52.30
2019-05-20T08:04:05.244Z,52.30
2019-05-20T08:06:33.984Z,52.30
2019-05-20T08:09:02.777Z,52.30
2019-05-20T08:11:31.477Z,52.30
2019-05-20T08:14:00.166Z,52.20
2019-05-20T08:16:28.812Z,52.20
2019-05-20T08:18:57.472Z,52.20
2019-05-20T08:21:26.129Z,52.20
2019-05-20T08:23:54.783Z,52.20
2019-05-20T08:26:23.466Z,52.20
2019-05-20T08:28:52.112Z,52.10
2019-05-20T08:31:20.765Z,52.20
2019-05-20T08:33:49.453Z,52.10
2019-05-20T08:36:18.104Z,52.10
2019-05-20T08:38:46.774Z,52.10
2019-05-20T08:41:15.413Z,52.10
2019-05-20T08:43:44.089Z,52.10
2019-05-20T08:46:12.789Z,52.10
2019-05-20T08:48:41.493Z,52.00
2019-05-20T08:51:10.256Z,52.00
2019-05-20T08:53:38.903Z,52.00
2019-05-20T08:56:07.578Z,52.00
2019-05-20T08:58:36.279Z,52.00
2019-05-20T09:01:05.243Z,52.00
2019-05-20T09:03:34.208Z,51.90
2019-05-20T09:06:02.950Z,51.90
2019-05-20T09:08:31.648Z,51.90
2019-05-20T09:11:00.307Z,51.80
2019-05-20T09:13:28.996Z,51.80
2019-05-20T09:15:57.708Z,51.80
2019-05-20T09:18:26.382Z,51.80
2019-05-20T09:20:55.119Z,51.80
2019-05-20T09:23:23.766Z,51.70
2019-05-20T09:25:52.520Z,51.70
2019-05-20T09:28:21.294Z,51.70
2019-05-20T09:30:50.012Z,51.70
2019-05-20T09:33:19.330Z,51.70
2019-05-20T09:35:48.038Z,51.70
2019-05-20T09:38:20.813Z,51.70
2019-05-20T09:40:48.874Z,51.70
2019-05-20T09:43:18.185Z,51.70
2019-05-20T09:45:47.190Z,51.70
2019-05-20T09:48:15.911Z,51.70
2019-05-20T09:50:44.586Z,51.70
2019-05-20T09:53:13.247Z,51.70
2019-05-20T09:55:41.988Z,51.70
2019-05-20T09:58:10.716Z,51.60
2019-05-20T10:00:40.044Z,51.60
2019-05-20T10:03:08.735Z,51.60
2019-05-20T10:05:37.996Z,51.50
2019-05-20T10:08:07.462Z,51.50
2019-05-20T10:10:36.823Z,51.50
2019-05-20T10:13:05.853Z,51.50
2019-05-20T10:15:35.515Z,51.50
2019-05-20T10:18:04.200Z,51.50
2019-05-20T10:20:32.934Z,51.50
2019-05-20T10:23:01.574Z,51.50
2019-05-20T10:25:30.220Z,51.50
2019-05-20T10:27:58.932Z,51.50
2019-05-20T10:30:27.632Z,51.50
2019-05-20T10:32:56.276Z,51.50
2019-05-20T10:35:24.943Z,51.50
2019-05-20T10:37:53.621Z,51.50
2019-05-20T10:40:22.314Z,51.50
2019-05-20T10:42:51.018Z,51.50
2019-05-20T10:45:19.733Z,51.40
2019-05-20T10:47:48.394Z,51.50
2019-05-20T10:50:17.876Z,51.40
2019-05-20T10:52:46.574Z,51.40
2019-05-20T10:55:15.280Z,51.50
2019-05-20T10:57:43.938Z,51.50
2019-05-20T11:00:12.753Z,51.40
2019-05-20T11:02:41.467Z,51.40
2019-05-20T11:05:10.121Z,51.40
2019-05-20T11:07:39.343Z,51.50
2019-05-20T11:10:08.105Z,51.40
2019-05-20T11:12:36.935Z,51.40
2019-05-20T11:15:06.415Z,51.40
2019-05-20T11:17:35.073Z,51.50
2019-05-20T11:20:04.148Z,51.40
2019-05-20T11:22:32.815Z,51.40
2019-05-20T11:25:01.494Z,51.40
2019-05-20T11:27:30.128Z,51.50
2019-05-20T11:29:58.818Z,51.50
2019-05-20T11:32:27.520Z,51.50
2019-05-20T11:34:56.527Z,51.50
2019-05-20T11:37:25.174Z,51.50
2019-05-20T11:39:53.822Z,51.50
2019-05-20T11:42:22.493Z,51.50
2019-05-20T11:44:51.154Z,51.50
2019-05-20T11:47:19.871Z,51.50
2019-05-20T11:49:48.533Z,51.50
2019-05-20T11:52:17.194Z,51.50
2019-05-20T11:54:45.912Z,51.40
2019-05-20T11:57:14.596Z,51.50
2019-05-20T11:59:43.231Z,51.40
2019-05-20T12:02:11.968Z,51.40
2019-05-20T12:04:40.620Z,51.40
2019-05-20T12:07:09.339Z,51.50
2019-05-20T12:09:49.212Z,51.40
2019-05-20T12:12:08.424Z,51.40
2019-05-20T12:14:37.082Z,51.30
2019-05-20T12:17:05.740Z,51.40
2019-05-20T12:19:34.398Z,51.40
2019-05-20T12:22:03.080Z,51.30
2019-05-20T12:24:31.773Z,51.40
2019-05-20T12:27:00.431Z,51.40
2019-05-20T12:29:29.082Z,51.30
2019-05-20T12:31:57.795Z,51.30
2019-05-20T12:34:26.437Z,51.30
2019-05-20T12:36:55.105Z,51.40
2019-05-20T12:39:23.862Z,51.30
2019-05-20T12:41:53.212Z,51.40
2019-05-20T12:44:21.885Z,51.30
2019-05-20T12:46:50.614Z,51.30
2019-05-20T12:49:19.365Z,51.30
2019-05-20T12:51:48.740Z,51.30
2019-05-20T12:54:17.416Z,51.30
2019-05-20T12:56:46.075Z,51.30
2019-05-20T12:59:14.780Z,51.30
2019-05-20T13:01:43.433Z,51.30
2019-05-20T13:04:12.168Z,51.30
2019-05-20T13:06:40.883Z,51.30
2019-05-20T13:09:09.519Z,51.20
2019-05-20T13:11:38.227Z,51.20
2019-05-20T13:14:06.892Z,51.20
2019-05-20T13:16:35.547Z,51.20
2019-05-20T13:19:04.212Z,51.20
2019-05-20T13:21:32.863Z,51.30
2019-05-20T13:24:01.510Z,51.20
2019-05-20T13:26:30.164Z,51.10
2019-05-20T13:28:59.726Z,51.10
2019-05-20T13:31:29.503Z,51.20
2019-05-20T13:33:58.212Z,51.10
2019-05-20T13:36:26.844Z,51.10
2019-05-20T13:38:55.533Z,51.60
2019-05-20T13:41:24.190Z,51.90
2019-05-20T13:43:52.853Z,52.20
2019-05-20T13:46:21.514Z,52.30
2019-05-20T13:48:50.160Z,52.40
2019-05-20T13:51:18.850Z,52.40
2019-05-20T13:53:47.506Z,52.50
2019-05-20T13:56:16.179Z,52.60
2019-05-20T13:58:44.855Z,52.60
2019-05-20T14:01:13.499Z,52.80
2019-05-20T14:03:42.173Z,52.70
2019-05-20T14:06:10.865Z,52.70
2019-05-20T14:08:39.565Z,52.60
2019-05-20T14:11:08.331Z,52.50
2019-05-20T14:13:37.006Z,52.40
2019-05-20T14:16:05.698Z,52.40
2019-05-20T14:18:34.370Z,52.30
2019-05-20T14:21:03.038Z,52.30
2019-05-20T14:23:31.688Z,52.20
2019-05-20T14:26:00.368Z,52.20
2019-05-20T14:28:29.075Z,52.10
2019-05-20T14:30:57.783Z,52.00
2019-05-20T14:33:26.440Z,52.00
2019-05-20T14:35:55.170Z,52.00
2019-05-20T14:38:23.841Z,52.00
2019-05-20T14:40:52.483Z,51.90
2019-05-20T14:43:21.162Z,51.90
2019-05-20T14:45:49.820Z,52.10
2019-05-20T14:48:18.501Z,52.20
2019-05-20T14:50:47.209Z,52.40
2019-05-20T14:53:15.883Z,52.40
2019-05-20T14:55:44.540Z,52.40
2019-05-20T14:58:13.269Z,52.50
2019-05-20T15:00:41.937Z,52.60
2019-05-20T15:03:10.602Z,52.60
2019-05-20T15:05:39.701Z,52.70
2019-05-20T15:08:09.222Z,52.80
2019-05-20T15:10:37.889Z,52.60
2019-05-20T15:13:06.565Z,52.60
2019-05-20T15:15:35.329Z,52.50
2019-05-20T15:18:04.018Z,52.50
2019-05-20T15:20:32.729Z,52.40
2019-05-20T15:23:01.399Z,52.40
2019-05-20T15:25:30.172Z,53.10
2019-05-20T15:27:58.946Z,52.40
2019-05-20T15:30:27.679Z,52.40
2019-05-20T15:32:56.345Z,52.30
2019-05-20T15:35:25.008Z,52.30
2019-05-20T15:37:53.679Z,52.30
2019-05-20T15:40:24.406Z,52.30
2019-05-20T15:42:53.207Z,52.20
2019-05-20T15:45:21.887Z,52.20
2019-05-20T15:47:50.544Z,52.20
2019-05-20T15:50:19.281Z,52.20
2019-05-20T15:52:47.931Z,52.20
2019-05-20T15:55:16.817Z,52.10
2019-05-20T15:57:45.571Z,52.00
2019-05-20T16:00:15.389Z,51.90
2019-05-20T16:02:44.048Z,51.90
2019-05-20T16:05:12.793Z,51.90
2019-05-20T16:07:41.467Z,51.90
2019-05-20T16:10:10.230Z,51.90
2019-05-20T16:12:38.887Z,51.90
2019-05-20T16:15:07.667Z,52.00
2019-05-20T16:17:36.355Z,52.00
2019-05-20T16:20:07.164Z,52.00
2019-05-20T16:22:35.924Z,52.00
2019-05-20T16:25:05.402Z,52.00
2019-05-20T16:27:34.113Z,52.10
2019-05-20T16:30:06.858Z,52.20
2019-05-20T16:32:33.678Z,52.20
2019-05-20T16:35:02.938Z,52.10
2019-05-20T16:37:32.060Z,52.20
2019-05-20T16:40:00.742Z,52.20
2019-05-20T16:42:29.473Z,52.20
2019-05-20T16:44:58.237Z,52.20
2019-05-20T16:47:26.916Z,52.20
2019-05-20T16:49:55.583Z,52.10
2019-05-20T16:52:24.235Z,52.10
2019-05-20T16:54:52.921Z,52.10
2019-05-20T16:57:21.567Z,52.10
2019-05-20T16:59:50.248Z,52.20
2019-05-20T17:02:18.921Z,52.10
2019-05-20T17:04:47.577Z,52.10
2019-05-20T17:07:16.268Z,52.10
2019-05-20T17:09:44.966Z,52.10
2019-05-20T17:12:13.624Z,52.10
2019-05-20T17:14:42.307Z,52.10
2019-05-20T17:17:10.967Z,52.20
2019-05-20T17:19:39.639Z,52.20
2019-05-20T17:22:08.300Z,52.30
2019-05-20T17:24:36.952Z,52.30
2019-05-20T17:27:05.658Z,52.30
2019-05-20T17:29:34.435Z,52.40
2019-05-20T17:32:03.145Z,52.80
2019-05-20T17:34:31.906Z,53.10
2019-05-20T17:37:00.582Z,52.90
2019-05-20T17:39:29.347Z,52.70
2019-05-20T17:41:58.119Z,52.60
2019-05-20T17:44:26.765Z,53.00
2019-05-20T17:46:55.417Z,53.30
2019-05-20T17:49:24.104Z,53.40
2019-05-20T17:51:53.733Z,53.10
2019-05-20T17:54:22.421Z,53.00
2019-05-20T17:56:51.120Z,53.10
2019-05-20T17:59:19.770Z,53.00
2019-05-20T18:01:48.461Z,53.10
2019-05-20T18:04:17.176Z,53.10
2019-05-20T18:06:45.870Z,54.00
2019-05-20T18:09:14.535Z,54.30
2019-05-20T18:11:43.216Z,54.00
2019-05-20T18:14:11.913Z,53.70
2019-05-20T18:16:40.653Z,53.70
2019-05-20T18:19:09.373Z,53.90
2019-05-20T18:21:38.046Z,53.80
2019-05-20T18:24:06.724Z,53.80
2019-05-20T18:26:35.380Z,53.80
2019-05-20T18:29:04.064Z,53.70
2019-05-20T18:31:33.293Z,53.70
2019-05-20T18:34:02.816Z,53.60
2019-05-20T18:36:31.536Z,53.50
2019-05-20T18:39:00.192Z,53.40
2019-05-20T18:41:28.869Z,53.60
2019-05-20T18:43:57.542Z,53.60
2019-05-20T18:46:26.227Z,54.20
2019-05-20T18:48:54.923Z,54.20
2019-05-20T18:51:23.593Z,54.00
2019-05-20T18:53:52.252Z,54.00
2019-05-20T18:56:20.927Z,54.00
2019-05-20T18:58:50.348Z,53.90
2019-05-20T19:01:19.719Z,53.90
2019-05-20T19:03:48.699Z,53.80
2019-05-20T19:06:17.423Z,53.80
2019-05-20T19:08:46.102Z,53.80
2019-05-20T19:11:14.738Z,53.70
2019-05-20T19:13:43.411Z,53.70
2019-05-20T19:16:12.092Z,53.60
2019-05-20T19:18:40.771Z,53.70
2019-05-20T19:21:10.071Z,53.60
2019-05-20T19:23:38.763Z,53.60
2019-05-20T19:26:07.443Z,53.50
2019-05-20T19:28:36.115Z,53.50
2019-05-20T19:31:07.838Z,53.50
2019-05-20T19:33:35.169Z,53.50
2019-05-20T19:36:03.825Z,53.50
2019-05-20T19:38:34.938Z,54.10
2019-05-20T19:41:03.001Z,54.50
2019-05-20T19:43:31.685Z,55.00
2019-05-20T19:46:00.341Z,55.40
2019-05-20T19:48:29.029Z,55.30
2019-05-20T19:50:57.700Z,54.70
2019-05-20T19:53:26.413Z,54.60
2019-05-20T19:55:55.098Z,54.40
2019-05-20T19:58:23.753Z,54.40
2019-05-20T20:00:52.457Z,54.30
2019-05-20T20:03:21.093Z,54.20
2019-05-20T20:05:49.747Z,54.60
2019-05-20T20:08:18.460Z,55.60
2019-05-20T20:10:47.096Z,55.30
2019-05-20T20:13:15.775Z,54.80
2019-05-20T20:15:44.481Z,54.70
2019-05-20T20:18:13.197Z,54.60
2019-05-20T20:20:41.878Z,54.40
2019-05-20T20:23:10.554Z,54.80
2019-05-20T20:25:39.223Z,55.10
2019-05-20T20:28:07.973Z,55.40
2019-05-20T20:30:36.689Z,55.40
2019-05-20T20:33:05.345Z,55.80
2019-05-20T20:35:37.938Z,56.00
2019-05-20T20:38:04.402Z,56.30
2019-05-20T20:40:33.073Z,56.20
2019-05-20T20:43:01.736Z,56.30
2019-05-20T20:45:31.102Z,56.20
2019-05-20T20:47:59.786Z,56.30
2019-05-20T20:50:28.464Z,56.30
2019-05-20T20:52:57.140Z,56.30
2019-05-20T20:55:25.803Z,56.30
2019-05-20T20:57:54.496Z,56.20
2019-05-20T21:00:23.139Z,56.30
2019-05-20T21:02:53.567Z,56.30
2019-05-20T21:05:22.977Z,56.20
2019-05-20T21:07:51.915Z,56.30
2019-05-20T21:10:21.113Z,56.20
2019-05-20T21:12:49.787Z,56.10
2019-05-20T21:15:18.455Z,56.10
2019-05-20T21:17:47.108Z,56.00
2019-05-20T21:20:15.764Z,56.00
2019-05-20T21:22:44.432Z,55.90
2019-05-20T21:25:13.086Z,55.90
2019-05-20T21:27:41.874Z,55.90
2019-05-20T21:30:10.559Z,56.00
2019-05-20T21:32:39.474Z,55.90
2019-05-20T21:35:08.175Z,55.80
2019-05-20T21:37:36.936Z,55.80
2019-05-20T21:40:05.702Z,55.90
2019-05-20T21:42:34.428Z,55.90
2019-05-20T21:45:03.202Z,55.80
2019-05-20T21:47:31.921Z,56.00
2019-05-20T21:50:00.632Z,55.80
2019-05-20T21:52:29.363Z,55.80
2019-05-20T21:54:58.001Z,55.70
2019-05-20T21:57:26.671Z,55.70
2019-05-20T21:59:55.359Z,55.60
2019-05-20T22:02:26.581Z,55.60
2019-05-20T22:04:54.972Z,55.60
2019-05-20T22:07:23.742Z,55.60
2019-05-20T22:09:52.647Z,55.70
2019-05-20T22:12:21.572Z,55.60
2019-05-20T22:14:50.228Z,55.60
2019-05-20T22:17:18.990Z,55.50
2019-05-20T22:19:47.728Z,55.40
2019-05-20T22:22:25.922Z,55.40
2019-05-20T22:24:54.577Z,55.30
2019-05-20T22:27:23.241Z,55.30
2019-05-20T22:29:51.964Z,55.40
2019-05-20T22:32:39.917Z,55.20
2019-05-20T22:35:08.762Z,55.30
2019-05-20T22:37:37.469Z,55.20
2019-05-20T22:40:06.358Z,55.10
2019-05-20T22:42:35.108Z,55.20
2019-05-20T22:45:04.248Z,55.20
2019-05-20T22:47:32.957Z,55.10
2019-05-20T22:50:01.644Z,55.10
2019-05-20T22:52:30.331Z,55.10
2019-05-20T22:54:58.996Z,55.00
2019-05-20T22:57:27.692Z,55.00
2019-05-20T22:59:56.367Z,55.00
2019-05-20T23:02:25.012Z,55.00
2019-05-20T23:04:53.688Z,55.00
2019-05-20T23:07:22.337Z,55.00
2019-05-20T23:09:51.665Z,55.00
2019-05-20T23:12:20.437Z,55.00
2019-05-20T23:14:49.101Z,55.00
2019-05-20T23:17:17.813Z,54.80
2019-05-20T23:19:46.470Z,54.80
2019-05-20T23:22:15.999Z,54.80
2019-05-20T23:24:44.685Z,54.70
2019-05-20T23:27:13.375Z,54.60
2019-05-20T23:29:42.015Z,54.60
2019-05-20T23:32:10.693Z,54.50
2019-05-20T23:34:39.368Z,54.50
2019-05-20T23:37:08.043Z,54.40
2019-05-20T23:39:36.737Z,54.30
2019-05-20T23:42:05.389Z,54.30
2019-05-20T23:44:34.059Z,54.30
2019-05-20T23:47:02.776Z,54.30
2019-05-20T23:49:31.449Z,54.30
2019-05-20T23:52:00.127Z,54.30
2019-05-20T23:54:28.804Z,54.20
2019-05-20T23:56:57.475Z,54.20
2019-05-20T23:59:26.153Z,54.20
